createdAt,value
2023-02-07T00:01:44.463Z,10.11
2023-02-07T00:04:13.305Z,10.09
2023-02-07T00:06:41.876Z,10.09
2023-02-07T00:09:12.789Z,10.09
2023-02-07T00:11:43.362Z,10.09
2023-02-07T00:14:13.777Z,10.06
2023-02-07T00:16:44.028Z,10.03
2023-02-07T00:19:12.633Z,10.02
2023-02-07T00:21:41.156Z,10.02
2023-02-07T00:24:09.797Z,10.00
2023-02-07T00:26:38.181Z,10.02
2023-02-07T00:29:07.650Z,10.03
2023-02-07T00:31:37.473Z,10.01
2023-02-07T00:34:09.114Z,10.01
2023-02-07T00:36:38.600Z,10.01
2023-02-07T00:39:10.221Z,10.03
2023-02-07T00:41:39.167Z,10.04
2023-02-07T00:44:08.528Z,10.05
2023-02-07T00:46:37.705Z,10.03
2023-02-07T00:49:08.308Z,10.02
2023-02-07T00:51:36.894Z,10.02
2023-02-07T00:54:06.385Z,10.04
2023-02-07T00:56:35.556Z,10.01
2023-02-07T00:59:04.385Z,9.98
2023-02-07T01:01:33.209Z,9.98
2023-02-07T01:04:01.956Z,9.98
2023-02-07T01:06:33.863Z,9.99
2023-02-07T01:09:05.688Z,9.98
2023-02-07T01:11:35.410Z,9.96
2023-02-07T01:14:04.585Z,9.95
2023-02-07T01:16:36.069Z,9.94
2023-02-07T01:19:07.123Z,9.93
2023-02-07T01:21:37.226Z,9.92
2023-02-07T01:24:07.754Z,9.90
2023-02-07T01:26:37.277Z,9.88
2023-02-07T01:29:06.480Z,9.87
2023-02-07T01:31:35.350Z,9.86
2023-02-07T01:34:05.614Z,9.86
2023-02-07T01:36:34.335Z,9.86
2023-02-07T01:39:05.190Z,9.84
2023-02-07T01:41:36.455Z,9.80
2023-02-07T01:44:07.681Z,9.79
2023-02-07T01:46:37.156Z,9.77
2023-02-07T01:49:11.161Z,9.77
2023-02-07T01:51:45.686Z,9.74
2023-02-07T01:54:16.265Z,9.70
2023-02-07T01:56:51.800Z,9.66
2023-02-07T01:59:20.658Z,9.61
2023-02-07T02:01:49.175Z,9.57
2023-02-07T02:04:19.189Z,9.49
2023-02-07T02:06:47.867Z,9.44
2023-02-07T02:09:18.194Z,9.39
2023-02-07T02:12:19.771Z,9.35
2023-02-07T02:15:09.432Z,9.30
2023-02-07T02:17:56.422Z,9.27
2023-02-07T02:21:21.377Z,9.18
2023-02-07T02:24:13.743Z,9.10
2023-02-07T02:26:54.524Z,8.99
2023-02-07T02:30:01.321Z,8.94
2023-02-07T02:33:03.156Z,8.89
2023-02-07T02:35:38.888Z,8.87
2023-02-07T02:38:16.579Z,8.88
2023-02-07T02:40:53.423Z,8.88
2023-02-07T02:43:30.961Z,8.89
2023-02-07T02:46:03.117Z,8.87
2023-02-07T02:48:33.649Z,8.85
2023-02-07T02:51:02.807Z,8.87
2023-02-07T02:53:31.271Z,8.90
2023-02-07T02:56:31.612Z,8.93
2023-02-07T02:59:25.652Z,8.93
2023-02-07T03:02:05.878Z,8.91
2023-02-07T03:05:08.553Z,8.91
2023-02-07T03:07:52.960Z,8.92
2023-02-07T03:10:33.448Z,8.94
2023-02-07T03:13:15.480Z,8.96
2023-02-07T03:15:55.416Z,8.99
2023-02-07T03:18:32.016Z,8.99
2023-02-07T03:21:09.899Z,9.00
2023-02-07T03:23:39.430Z,8.99
2023-02-07T03:26:10.088Z,9.00
2023-02-07T03:28:42.466Z,9.03
2023-02-07T03:31:15.546Z,9.05
2023-02-07T03:33:45.648Z,9.06
2023-02-07T03:36:23.797Z,9.07
2023-02-07T03:38:52.680Z,9.05
2023-02-07T03:41:29.583Z,9.06
2023-02-07T03:44:00.829Z,9.05
2023-02-07T03:46:37.027Z,9.07
2023-02-07T03:49:07.730Z,9.07
2023-02-07T03:51:38.636Z,9.07
2023-02-07T03:54:07.185Z,9.07
2023-02-07T03:56:35.627Z,9.07
2023-02-07T03:59:04.106Z,9.06
2023-02-07T04:01:33.048Z,9.02
2023-02-07T04:04:01.539Z,9.02
2023-02-07T04:06:30.420Z,9.00
2023-02-07T04:09:00.289Z,9.01
2023-02-07T04:11:28.902Z,9.00
2023-02-07T04:13:57.331Z,8.99
2023-02-07T04:16:27.692Z,8.99
2023-02-07T04:18:56.166Z,8.98
2023-02-07T04:21:25.202Z,8.98
2023-02-07T04:23:53.670Z,8.98
2023-02-07T04:26:23.946Z,8.96
2023-02-07T04:28:52.562Z,8.93
2023-02-07T04:31:21.013Z,8.89
2023-02-07T04:33:50.206Z,8.87
2023-02-07T04:36:19.462Z,8.87
2023-02-07T04:38:47.970Z,8.87
2023-02-07T04:41:16.418Z,8.86
2023-02-07T04:43:46.393Z,8.86
2023-02-07T04:46:14.857Z,8.86
2023-02-07T04:48:43.343Z,8.85
2023-02-07T04:51:12.821Z,8.85
2023-02-07T04:53:41.326Z,8.86
2023-02-07T04:56:10.156Z,8.85
2023-02-07T04:58:38.754Z,8.84
2023-02-07T05:01:08.677Z,8.87
2023-02-07T05:03:37.193Z,8.85
2023-02-07T05:06:06.423Z,8.82
2023-02-07T05:08:34.889Z,8.80
2023-02-07T05:11:04.035Z,8.79
2023-02-07T05:13:32.480Z,8.79
2023-02-07T05:16:04.513Z,8.80
2023-02-07T05:18:34.656Z,8.77
2023-02-07T05:21:03.173Z,8.76
2023-02-07T05:23:31.795Z,8.75
2023-02-07T05:26:00.209Z,8.75
2023-02-07T05:28:28.651Z,8.74
2023-02-07T05:30:57.937Z,8.73
2023-02-07T05:33:25.432Z,8.72
2023-02-07T05:35:55.699Z,8.72
2023-02-07T05:38:24.133Z,8.71
2023-02-07T05:40:52.812Z,8.70
2023-02-07T05:43:21.229Z,8.67
2023-02-07T05:45:49.731Z,8.68
2023-02-07T05:48:18.730Z,8.67
2023-02-07T05:50:47.182Z,8.66
2023-02-07T05:53:17.240Z,8.62
2023-02-07T05:55:45.728Z,8.57
2023-02-07T05:58:14.112Z,8.52
2023-02-07T06:00:42.577Z,8.46
2023-02-07T06:03:11.397Z,8.41
2023-02-07T06:05:40.274Z,8.36
2023-02-07T06:08:09.160Z,8.32
2023-02-07T06:10:39.001Z,8.26
2023-02-07T06:13:07.948Z,8.22
2023-02-07T06:15:36.632Z,8.19
2023-02-07T06:18:05.635Z,8.19
2023-02-07T06:20:33.986Z,8.19
2023-02-07T06:23:02.415Z,8.18
2023-02-07T06:25:30.908Z,8.19
2023-02-07T06:28:00.787Z,8.17
2023-02-07T06:30:29.645Z,8.17
2023-02-07T06:32:58.149Z,8.16
2023-02-07T06:35:26.884Z,8.15
2023-02-07T06:37:55.372Z,8.18
2023-02-07T06:40:23.795Z,8.20
2023-02-07T06:42:52.152Z,8.18
2023-02-07T06:45:21.929Z,8.21
2023-02-07T06:47:50.425Z,8.19
2023-02-07T06:50:19.138Z,8.18
2023-02-07T06:52:49.430Z,8.15
2023-02-07T06:55:18.300Z,8.10
2023-02-07T06:57:46.670Z,8.07
2023-02-07T07:00:17.325Z,8.06
2023-02-07T07:02:47.509Z,8.03
2023-02-07T07:05:16.531Z,8.02
2023-02-07T07:07:45.460Z,8.04
2023-02-07T07:10:14.159Z,8.03
2023-02-07T07:12:42.669Z,8.03
2023-02-07T07:15:11.605Z,8.04
2023-02-07T07:17:42.310Z,8.03
2023-02-07T07:20:13.170Z,8.04
2023-02-07T07:22:41.663Z,8.04
2023-02-07T07:25:10.853Z,8.07
2023-02-07T07:27:39.328Z,8.06
2023-02-07T07:30:10.662Z,8.08
2023-02-07T07:32:40.615Z,8.09
2023-02-07T07:35:11.165Z,8.11
2023-02-07T07:37:41.745Z,8.13
2023-02-07T07:40:11.906Z,8.15
2023-02-07T07:42:40.579Z,8.16
2023-02-07T07:45:22.557Z,8.15
2023-02-07T07:47:51.084Z,8.15
2023-02-07T07:50:21.500Z,8.16
2023-02-07T07:52:50.001Z,8.15
2023-02-07T07:55:18.656Z,8.16
2023-02-07T07:57:47.199Z,8.17
2023-02-07T08:00:16.497Z,8.19
2023-02-07T08:02:45.320Z,8.23
2023-02-07T08:05:14.043Z,8.24
2023-02-07T08:07:43.915Z,8.28
2023-02-07T08:10:12.902Z,8.30
2023-02-07T08:12:43.270Z,8.30
2023-02-07T08:15:13.981Z,8.31
2023-02-07T08:17:42.525Z,8.32
2023-02-07T08:20:12.842Z,8.33
2023-02-07T08:22:41.629Z,8.30
2023-02-07T08:25:11.893Z,8.33
2023-02-07T08:27:40.616Z,8.33
2023-02-07T08:30:12.920Z,8.34
2023-02-07T08:32:42.116Z,8.34
2023-02-07T08:35:10.991Z,8.35
2023-02-07T08:37:39.752Z,8.36
2023-02-07T08:40:11.394Z,8.37
2023-02-07T08:42:39.993Z,8.38
2023-02-07T08:45:10.363Z,8.40
2023-02-07T08:47:39.162Z,8.42
2023-02-07T08:50:09.943Z,8.44
2023-02-07T08:52:38.781Z,8.45
2023-02-07T08:55:08.807Z,8.49
2023-02-07T08:57:39.709Z,8.53
2023-02-07T09:00:10.533Z,8.54
2023-02-07T09:02:39.699Z,8.58
2023-02-07T09:05:09.143Z,8.60
2023-02-07T09:07:38.098Z,8.64
2023-02-07T09:10:08.951Z,8.67
2023-02-07T09:12:39.345Z,8.69
2023-02-07T09:15:09.448Z,8.72
2023-02-07T09:17:38.136Z,8.75
2023-02-07T09:20:07.457Z,8.78
2023-02-07T09:22:57.023Z,8.81
2023-02-07T09:25:25.765Z,8.84
2023-02-07T09:27:55.954Z,8.89
2023-02-07T09:30:24.622Z,8.92
2023-02-07T09:32:53.657Z,8.95
2023-02-07T09:35:22.256Z,8.98
2023-02-07T09:37:50.723Z,9.01
2023-02-07T09:40:21.001Z,9.06
2023-02-07T09:42:59.038Z,9.09
2023-02-07T09:45:32.623Z,9.10
2023-02-07T09:48:06.697Z,9.09
2023-02-07T09:50:44.270Z,9.11
2023-02-07T09:53:19.093Z,9.13
2023-02-07T09:55:53.763Z,9.13
2023-02-07T09:58:36.627Z,9.16
2023-02-07T10:01:11.196Z,9.17
2023-02-07T10:03:50.374Z,9.15
2023-02-07T10:06:27.067Z,9.19
2023-02-07T10:08:59.454Z,9.21
2023-02-07T10:11:42.852Z,9.22
2023-02-07T10:14:32.346Z,9.22
2023-02-07T10:17:31.231Z,9.24
2023-02-07T10:20:22.782Z,9.25
2023-02-07T10:23:07.162Z,9.23
2023-02-07T10:25:49.144Z,9.20
2023-02-07T10:29:05.451Z,9.20
2023-02-07T10:31:40.131Z,9.22
2023-02-07T10:34:15.253Z,9.26
2023-02-07T10:36:49.462Z,9.30
2023-02-07T10:39:25.172Z,9.33
2023-02-07T10:41:55.991Z,9.32
2023-02-07T10:44:25.687Z,9.36
2023-02-07T10:47:01.652Z,9.36
2023-02-07T10:49:33.260Z,9.34
2023-02-07T10:52:07.646Z,9.33
2023-02-07T10:54:53.685Z,9.34
2023-02-07T10:57:23.487Z,9.34
2023-02-07T11:00:01.962Z,9.37
2023-02-07T11:02:54.202Z,9.40
2023-02-07T11:05:55.284Z,9.45
2023-02-07T11:08:28.722Z,9.47
2023-02-07T11:10:59.697Z,9.52
2023-02-07T11:13:30.954Z,9.57
2023-02-07T11:16:04.230Z,9.61
2023-02-07T11:18:45.636Z,9.64
2023-02-07T11:21:29.970Z,9.65
2023-02-07T11:24:02.730Z,9.69
2023-02-07T11:26:32.469Z,9.75
2023-02-07T11:29:08.505Z,9.78
2023-02-07T11:31:39.156Z,9.79
2023-02-07T11:34:42.472Z,9.77
2023-02-07T11:37:22.747Z,9.75
2023-02-07T11:39:52.654Z,9.71
2023-02-07T11:42:23.549Z,9.72
2023-02-07T11:44:52.751Z,9.74
2023-02-07T11:47:27.702Z,9.80
2023-02-07T11:50:00.262Z,9.82
2023-02-07T11:52:29.479Z,9.88
2023-02-07T11:55:02.135Z,9.91
2023-02-07T11:57:34.872Z,9.92
2023-02-07T12:00:08.079Z,9.92
2023-02-07T12:02:43.150Z,9.89
2023-02-07T12:05:20.958Z,9.93
2023-02-07T12:07:53.415Z,9.96
2023-02-07T12:10:25.339Z,10.01
2023-02-07T12:13:02.525Z,10.03
2023-02-07T12:15:37.958Z,10.09
2023-02-07T12:18:14.306Z,10.13
2023-02-07T12:20:54.017Z,10.17
2023-02-07T12:23:41.725Z,10.24
2023-02-07T12:26:21.988Z,10.28
2023-02-07T12:29:13.506Z,10.27
2023-02-07T12:31:52.538Z,10.25
2023-02-07T12:34:30.657Z,10.26
2023-02-07T12:37:12.914Z,10.23
2023-02-07T12:39:47.306Z,10.19
2023-02-07T12:42:31.074Z,10.18
2023-02-07T12:45:02.284Z,10.20
2023-02-07T12:47:43.919Z,10.25
2023-02-07T12:50:40.924Z,10.33
2023-02-07T12:53:29.514Z,10.38
2023-02-07T12:56:10.536Z,10.45
2023-02-07T12:58:51.502Z,10.51
2023-02-07T13:01:28.007Z,10.53
2023-02-07T13:04:42.607Z,10.51
2023-02-07T13:07:28.085Z,10.49
2023-02-07T13:10:05.847Z,10.54
2023-02-07T13:12:46.660Z,10.59
2023-02-07T13:15:23.738Z,10.63
2023-02-07T13:18:01.866Z,10.65
2023-02-07T13:20:52.528Z,10.67
2023-02-07T13:23:23.835Z,10.66
2023-02-07T13:25:58.478Z,10.70
2023-02-07T13:28:33.099Z,10.75
2023-02-07T13:31:02.897Z,10.78
2023-02-07T13:33:36.345Z,10.85
2023-02-07T13:36:14.877Z,10.90
2023-02-07T13:39:03.724Z,10.96
2023-02-07T13:41:58.097Z,11.00
2023-02-07T13:44:35.631Z,11.05
2023-02-07T13:47:34.000Z,11.07
2023-02-07T13:50:12.168Z,11.10
2023-02-07T13:52:47.407Z,11.14
2023-02-07T13:55:28.305Z,11.17
2023-02-07T13:58:15.861Z,11.22
2023-02-07T14:01:17.371Z,11.23
2023-02-07T14:04:02.524Z,11.23
2023-02-07T14:06:34.396Z,11.28
2023-02-07T14:09:08.922Z,11.34
2023-02-07T14:11:43.056Z,11.36
2023-02-07T14:14:25.487Z,11.40
2023-02-07T14:16:57.147Z,11.36
2023-02-07T14:19:52.300Z,11.36
2023-02-07T14:22:29.804Z,11.36
2023-02-07T14:25:22.299Z,11.37
2023-02-07T14:28:20.134Z,11.38
2023-02-07T14:31:16.835Z,11.37
2023-02-07T14:34:15.601Z,11.34
2023-02-07T14:36:44.158Z,11.34
2023-02-07T14:39:34.483Z,11.35
2023-02-07T14:42:14.288Z,11.34
2023-02-07T14:44:44.435Z,11.35
2023-02-07T14:47:24.408Z,11.36
2023-02-07T14:49:56.950Z,11.35
2023-02-07T14:52:30.814Z,11.37
2023-02-07T14:55:02.804Z,11.37
2023-02-07T14:57:41.407Z,11.36
2023-02-07T15:00:28.716Z,11.37
2023-02-07T15:03:02.868Z,11.37
2023-02-07T15:05:35.724Z,11.36
2023-02-07T15:08:17.661Z,11.40
2023-02-07T15:10:54.165Z,11.39
2023-02-07T15:13:27.982Z,11.36
2023-02-07T15:16:00.286Z,11.36
2023-02-07T15:18:33.082Z,11.38
2023-02-07T15:21:03.566Z,11.39
2023-02-07T15:23:33.678Z,11.41
2023-02-07T15:26:07.905Z,11.44
2023-02-07T15:28:36.687Z,11.45
2023-02-07T15:31:12.766Z,11.44
2023-02-07T15:33:51.170Z,11.44
2023-02-07T15:36:35.257Z,11.41
2023-02-07T15:39:07.607Z,11.40
2023-02-07T15:41:36.199Z,11.39
2023-02-07T15:44:07.615Z,11.40
2023-02-07T15:46:51.496Z,11.39
2023-02-07T15:49:30.484Z,11.38
2023-02-07T15:52:12.206Z,11.35
2023-02-07T15:54:45.748Z,11.35
2023-02-07T15:57:23.260Z,11.33
2023-02-07T15:59:52.664Z,11.32
2023-02-07T16:02:27.234Z,11.33
2023-02-07T16:04:55.928Z,11.33
2023-02-07T16:07:26.545Z,11.33
2023-02-07T16:09:54.906Z,11.34
2023-02-07T16:12:47.865Z,11.31
2023-02-07T16:15:29.900Z,11.29
2023-02-07T16:17:59.104Z,11.25
2023-02-07T16:20:28.686Z,11.25
2023-02-07T16:23:01.720Z,11.23
2023-02-07T16:25:33.009Z,11.20
2023-02-07T16:28:02.819Z,11.16
2023-02-07T16:30:36.876Z,11.14
2023-02-07T16:33:07.050Z,11.13
2023-02-07T16:35:35.650Z,11.13
2023-02-07T16:38:05.552Z,11.11
2023-02-07T16:40:34.105Z,11.09
2023-02-07T16:43:05.404Z,11.09
2023-02-07T16:45:33.923Z,11.06
2023-02-07T16:48:02.456Z,11.07
2023-02-07T16:50:32.033Z,11.04
2023-02-07T16:53:00.527Z,11.04
2023-02-07T16:55:30.786Z,11.01
2023-02-07T16:57:59.547Z,10.99
2023-02-07T17:00:31.477Z,10.99
2023-02-07T17:02:59.966Z,10.96
2023-02-07T17:05:28.699Z,10.95
2023-02-07T17:07:57.363Z,10.93
2023-02-07T17:10:31.345Z,10.93
2023-02-07T17:12:59.871Z,10.90
2023-02-07T17:15:28.898Z,10.89
2023-02-07T17:17:59.510Z,10.87
2023-02-07T17:20:33.847Z,10.84
2023-02-07T17:23:02.583Z,10.83
2023-02-07T17:25:32.968Z,10.79
2023-02-07T17:28:01.592Z,10.78
2023-02-07T17:30:38.197Z,10.77
2023-02-07T17:33:07.026Z,10.73
2023-02-07T17:35:36.072Z,10.73
2023-02-07T17:38:05.030Z,10.72
2023-02-07T17:40:38.529Z,10.71
2023-02-07T17:43:07.905Z,10.71
2023-02-07T17:45:38.407Z,10.71
2023-02-07T17:48:07.481Z,10.72
2023-02-07T17:50:40.887Z,10.72
2023-02-07T17:53:10.985Z,10.72
2023-02-07T17:55:41.360Z,10.72
2023-02-07T17:58:09.700Z,10.71
2023-02-07T18:00:40.328Z,10.71
2023-02-07T18:03:09.404Z,10.70
2023-02-07T18:05:40.392Z,10.71
2023-02-07T18:08:10.084Z,10.68
2023-02-07T18:10:40.304Z,10.68
2023-02-07T18:13:09.030Z,10.65
2023-02-07T18:15:37.451Z,10.63
2023-02-07T18:18:06.294Z,10.63
2023-02-07T18:20:35.806Z,10.63
2023-02-07T18:23:04.216Z,10.61
2023-02-07T18:25:34.423Z,10.60
2023-02-07T18:28:04.315Z,10.58
2023-02-07T18:30:33.535Z,10.57
2023-02-07T18:33:02.081Z,10.56
2023-02-07T18:35:30.699Z,10.54
2023-02-07T18:37:59.105Z,10.53
2023-02-07T18:40:28.040Z,10.51
2023-02-07T18:42:57.162Z,10.48
2023-02-07T18:45:27.636Z,10.47
2023-02-07T18:47:56.085Z,10.44
2023-02-07T18:50:25.354Z,10.45
2023-02-07T18:52:54.610Z,10.44
2023-02-07T18:55:23.202Z,10.43
2023-02-07T18:57:51.621Z,10.44
2023-02-07T19:00:20.879Z,10.44
2023-02-07T19:02:50.832Z,10.42
2023-02-07T19:05:20.564Z,10.41
2023-02-07T19:07:49.012Z,10.42
2023-02-07T19:10:17.568Z,10.40
2023-02-07T19:12:46.264Z,10.40
2023-02-07T19:15:15.230Z,10.38
2023-02-07T19:17:43.583Z,10.37
2023-02-07T19:20:13.612Z,10.35
2023-02-07T19:22:42.113Z,10.35
2023-02-07T19:25:10.833Z,10.33
2023-02-07T19:27:39.241Z,10.32
2023-02-07T19:30:10.631Z,10.31
2023-02-07T19:32:39.243Z,10.28
2023-02-07T19:35:08.283Z,10.27
2023-02-07T19:37:38.216Z,10.25
2023-02-07T19:40:07.819Z,10.23
2023-02-07T19:42:36.863Z,10.23
2023-02-07T19:45:05.957Z,10.20
2023-02-07T19:47:34.318Z,10.19
2023-02-07T19:50:02.830Z,10.20
2023-02-07T19:52:31.445Z,10.19
2023-02-07T19:55:01.342Z,10.18
2023-02-07T19:57:29.778Z,10.17
2023-02-07T19:59:58.349Z,10.16
2023-02-07T20:02:26.794Z,10.14
2023-02-07T20:04:55.552Z,10.11
2023-02-07T20:07:24.055Z,10.12
2023-02-07T20:09:52.555Z,10.09
2023-02-07T20:12:22.534Z,10.08
2023-02-07T20:14:51.353Z,10.07
2023-02-07T20:17:19.781Z,10.05
2023-02-07T20:19:48.158Z,10.03
2023-02-07T20:22:16.637Z,10.00
2023-02-07T20:24:45.291Z,9.99
2023-02-07T20:27:13.738Z,9.98
2023-02-07T20:29:45.358Z,9.97
2023-02-07T20:32:16.497Z,9.95
2023-02-07T20:34:46.589Z,9.94
2023-02-07T20:37:15.584Z,9.92
2023-02-07T20:39:44.181Z,9.91
2023-02-07T20:42:12.791Z,9.90
2023-02-07T20:44:41.243Z,9.88
2023-02-07T20:47:13.432Z,9.86
2023-02-07T20:49:42.058Z,9.84
2023-02-07T20:52:10.772Z,9.82
2023-02-07T20:54:39.220Z,9.83
2023-02-07T20:57:08.047Z,9.81
2023-02-07T20:59:36.471Z,9.79
2023-02-07T21:02:05.055Z,9.78
2023-02-07T21:04:37.396Z,9.78
2023-02-07T21:07:06.469Z,9.77
2023-02-07T21:09:35.103Z,9.75
2023-02-07T21:12:03.916Z,9.76
2023-02-07T21:14:34.551Z,9.75
2023-02-07T21:17:06.730Z,9.75
2023-02-07T21:19:39.828Z,9.72
2023-02-07T21:22:09.052Z,9.70
2023-02-07T21:24:37.422Z,9.69
2023-02-07T21:27:06.192Z,9.67
2023-02-07T21:29:36.394Z,9.66
2023-02-07T21:32:05.355Z,9.67
2023-02-07T21:34:33.887Z,9.66
2023-02-07T21:37:03.748Z,9.63
2023-02-07T21:39:32.144Z,9.63
2023-02-07T21:42:00.901Z,9.61
2023-02-07T21:44:29.698Z,9.60
2023-02-07T21:46:58.313Z,9.60
2023-02-07T21:49:26.973Z,9.59
2023-02-07T21:51:55.359Z,9.59
2023-02-07T21:54:25.234Z,9.56
2023-02-07T21:56:53.800Z,9.56
2023-02-07T21:59:23.834Z,9.53
2023-02-07T22:01:54.223Z,9.54
2023-02-07T22:04:23.195Z,9.52
2023-02-07T22:06:52.592Z,9.49
2023-02-07T22:09:23.919Z,9.52
2023-02-07T22:11:54.401Z,9.48
2023-02-07T22:14:24.805Z,9.49
2023-02-07T22:16:54.277Z,9.46
2023-02-07T22:19:23.301Z,9.46
2023-02-07T22:21:52.407Z,9.45
2023-02-07T22:24:21.824Z,9.44
2023-02-07T22:26:51.569Z,9.42
2023-02-07T22:29:19.977Z,9.42
2023-02-07T22:31:48.617Z,9.42
2023-02-07T22:34:17.087Z,9.41
2023-02-07T22:36:46.859Z,9.40
2023-02-07T22:39:18.148Z,9.39
2023-02-07T22:41:47.670Z,9.36
2023-02-07T22:44:17.574Z,9.35
2023-02-07T22:46:45.938Z,9.35
2023-02-07T22:49:14.344Z,9.33
2023-02-07T22:51:43.050Z,9.32
2023-02-07T22:54:16.621Z,9.30
2023-02-07T22:56:45.977Z,9.30
2023-02-07T22:59:15.144Z,9.28
2023-02-07T23:01:46.550Z,9.28
2023-02-07T23:04:17.635Z,9.25
2023-02-07T23:06:47.065Z,9.26
2023-02-07T23:09:16.399Z,9.24
2023-02-07T23:11:45.087Z,9.24
2023-02-07T23:14:14.064Z,9.22
2023-02-07T23:16:44.254Z,9.22
2023-02-07T23:19:16.902Z,9.20
2023-02-07T23:21:45.702Z,9.19
2023-02-07T23:24:14.757Z,9.18
2023-02-07T23:26:43.117Z,9.17
2023-02-07T23:29:11.735Z,9.16
2023-02-07T23:31:40.331Z,9.16
2023-02-07T23:34:11.100Z,9.15
2023-02-07T23:36:40.493Z,9.14
2023-02-07T23:39:09.709Z,9.13
2023-02-07T23:41:39.252Z,9.12
2023-02-07T23:44:08.955Z,9.11
2023-02-07T23:46:38.060Z,9.09
2023-02-07T23:49:06.692Z,9.09
2023-02-07T23:51:36.720Z,9.07
2023-02-07T23:54:05.577Z,9.07
2023-02-07T23:56:34.600Z,9.06
2023-02-07T23:59:02.993Z,9.04
